Weather observations for the past three days for
College Park Airport
Metric (Imperial)
Date Time (edt) Wind (kph) Vis. (km) Weather Sky Cond. Temperature (ºC) Relative Humidity Wind Chill (°C) Heat Index (°C) Pressure Precipitation (cm)
Air Dwpt 6 hour altimeter (cm) sea level (mb) 1 hr 3 hr 6 hr
Max. Min.
08 00:15 SW 7 16.09 Fair CLR 11.6 8 79% 75.9 0.0
07 23:55 Calm 16.09 Fair CLR 12.1 7.8 75% 75.9 0.0
07 23:35 SW 6 16.09 Fair CLR 12.7 7.7 72% 75.9 0.0
07 23:15 S 6 16.09 Partly Cloudy SCT090 12.6 7.8 73% 75.9 0.0
07 22:55 Calm 16.09 Overcast OVC090 12.6 7.7 72% 75.87 0.0
07 22:35 Calm 16.09 Mostly Cloudy BKN085 12.4 7.5 72% 75.87 0.0
07 22:15 S 7 16.09 Partly Cloudy SCT095 12.4 7.3 71% 75.87 0.0
07 21:55 S 7 16.09 Partly Cloudy SCT095 12.5 7.1 70% 75.87 0.0
07 21:15 SW 6 16.09 Fair CLR 13 6.7 66% 75.84 0.0
07 20:55 S 9 16.09 Fair CLR 13.4 6.7 64% 75.82 0.0
07 20:35 S 7 16.09 Fair CLR 13.7 6.6 62% 75.79 0.0
07 20:15 S 11 16.09 Fair CLR 14.1 6.4 60% 75.79 0.0
07 19:55 S 7 16.09 Fair CLR 14.6 6 18.1 14.5 57% 75.77 0.0
07 19:35 S 9 16.09 Fair CLR 15.2 5.7 53% 75.74 0.0
07 19:15 S 9 16.09 Fair CLR 15.7 5.5 51% 75.72 0.0
07 18:55 S 13 16.09 Fair CLR 15.9 5.2 49% 75.72 0.0
07 18:35 S 11 16.09 Fair CLR 16.4 5.3 48% 75.69 0.0
07 18:15 S 9 16.09 Fair CLR 16.9 5.2 46% 75.69 0.0
07 17:55 S 11 16.09 Fair CLR 17 5.5 47% 75.69 0.0
07 17:35 SW 13 16.09 Partly Cloudy SCT075 17.2 5.4 46% 75.69 0.0
07 17:15 SW 11 16.09 Fair CLR 17.3 4.3 42% 75.69 0.0
07 16:55 SW 7 16.09 Fair CLR 17.6 4.5 42% 75.69 0.0
07 16:35 S 13 16.09 Fair CLR 17 4.1 43% 75.69 0.0
07 16:15 SE 13 16.09 Fair CLR 16.8 4.2 43% 75.69 0.0
07 15:55 SW 9 16.09 Partly Cloudy SCT110 17.5 3.3 39% 75.67 0.0
07 15:35 SE 9 16.09 Fair CLR 17 3.1 40% 75.72 0.0
07 15:15 S 6 16.09 Partly Cloudy SCT095 17.3 3 39% 75.74 0.0
07 14:55 E 6 16.09 Partly Cloudy SCT095 16.4 3.7 43% 75.74 0.0
07 14:35 SW 9 16.09 Mostly Cloudy BKN095 16.7 3.1 40% 75.79 0.0
07 14:15 SE 6 16.09 Overcast OVC085 15.9 3.3 43% 75.79 0.0
07 13:55 SE 7 16.09 Overcast OVC085 15.3 2.6 15.5 12.5 43% 75.79 0.0
07 13:35 SE 7 16.09 Overcast OVC085 15 1.8 41% 75.84 0.0
07 13:15 E 7 16.09 Mostly Cloudy BKN085 BKN110 15.1 3.3 45% 75.87 0.0
07 12:55 Calm 16.09 Mostly Cloudy BKN085 BKN110 14.6 2.9 46% 75.87 0.0
07 12:35 NE 9 16.09 Overcast OVC075 14.4 2.2 44% 75.9 0.0
07 12:15 Calm 16.09 Overcast SCT033 SCT046 OVC075 14.2 3.4 48% 75.92 0.0
07 11:55 N 9 16.09 Overcast SCT033 SCT050 OVC075 13.8 3.2 49% 75.95 0.0
07 11:35 NE 9 16.09 Overcast OVC065 13.6 3.4 50% 75.97 0.0
07 11:15 N 9 16.09 Overcast OVC065 13.5 3.4 51% 75.97 0.0
07 10:55 NE 7 16.09 Overcast OVC065 13.2 4.9 57% 76 0.0
07 10:35 N 6 16.09 Overcast OVC065 12.8 5 59% 76 0.0
07 10:15 N 11 16.09 Overcast OVC055 12.6 4.3 57% 76 0.0
07 09:55 N 9 16.09 Overcast OVC055 12.7 3.9 55% 76.02 0.0
07 09:35 NW 11 16.09 Overcast OVC055 12.8 4.1 56% 76.02 0.0
07 09:15 N 13 16.09 Overcast OVC055 12.7 4.1 56% 76 0.0
07 08:55 NW 7 16.09 Overcast OVC055 12.6 6.3 66% 76.02 0.0
07 08:35 NW 7 16.09 Overcast OVC055 12.6 7.2 70% 76.02 0.0
07 08:15 NW 7 16.09 Overcast OVC055 12.9 8.5 75% 76 0.0
07 07:55 N 13 16.09 Overcast OVC049 12.9 9 14 12.5 77% 75.97 0.0
07 07:35 NW 7 16.09 Overcast OVC049 12.8 10 83% 75.97 0.0
07 07:15 N 7 16.09 Overcast OVC049 12.7 10.2 85% 75.97 0.0
07 06:55 N 6 16.09 Overcast OVC049 12.7 10 84% 75.97 0.0
07 06:35 N 6 16.09 Overcast OVC049 12.6 10.1 85% 75.95 0.0
07 06:15 NW 7 16.09 Overcast OVC049 12.7 10.4 86% 75.95 0.0
07 05:55 N 6 16.09 Overcast OVC047 12.7 10.8 88% 75.92 0.0
07 05:35 Calm 16.09 Overcast OVC047 12.6 10.6 88% 75.92 0.0
07 05:15 N 6 16.09 Overcast OVC047 12.8 10.8 88% 75.92 0.0
07 04:55 Calm 16.09 Overcast OVC045 12.8 10.7 87% 75.92 0.0
07 04:35 Calm 16.09 Overcast OVC043 12.9 10.4 85% 75.9 0.0
07 04:15 N 7 16.09 Overcast OVC043 13 10.3 84% 75.87 0.0
07 03:55 N 9 16.09 Overcast SCT018 BKN028 OVC043 13.1 10.3 83% 75.84 0.0
07 03:35 N 13 16.09 Light Drizzle SCT017 OVC041 13.6 11.5 87% 75.82 0.0
07 03:15 N 6 16.09 Overcast OVC041 13.9 12.2 90% 75.82 0.0
07 02:55 N 7 16.09 Overcast OVC039 13.9 12.3 90% 75.84 0.0
07 02:35 N 9 16.09 Overcast SCT032 OVC039 13.8 12.1 90% 75.84 0.0
07 02:15 N 13 16.09 Light Rain SCT026 OVC035 13.9 12.2 90% 75.82 0.0
07 01:55 N 11 16.09 Overcast BKN024 BKN032 OVC037 14.1 12.2 20.8 14 88% 75.82 0.0 0.03 0.05
07 01:35 N 20 G 31 16.09 Overcast OVC037 14.5 12.5 88% 75.84 0.0 0.03
07 01:15 N 9 16.09 Light Rain SCT028 OVC037 14.9 12.3 85% 75.82 0.0 0.03
07 00:55 NW 11 16.09 Light Rain SCT028 OVC035 15.5 12.1 80% 75.82 0.0 0.03
07 00:35 NW 9 16.09 Light Rain OVC035 17.1 11.4 69% 75.84 0.0
07 00:15 NW 13 16.09 Overcast OVC033 17.4 11.7 69% 75.82 0.0
06 23:55 N 9 16.09 Overcast SCT022 SCT026 OVC033 17.1 12 72% 75.77 0.0
06 23:15 NW 7 16.09 Overcast OVC031 18.2 13.4 74% 75.77 0.0
06 22:55 NW 7 16.09 Overcast OVC031 18.8 13 69% 75.77 0.0
06 22:35 NW 13 16.09 Overcast OVC027 19.3 14.1 72% 75.74 0.0
06 22:15 NW 9 16.09 Overcast OVC025 19.8 14 69% 75.72 0.0
06 21:55 NW 17 16.09 Overcast OVC025 20.1 14.8 72% 75.72 0.0
06 21:35 Calm 16.09 Overcast BKN029 OVC040 20 16.5 80% 75.72 0.0
06 21:15 Calm 16.09 Overcast BKN029 OVC038 20.3 16.5 79% 75.72 0.0
06 20:55 Calm 16.09 Overcast SCT033 BKN038 OVC046 19.7 16.5 82% 75.72 0.0
06 20:35 Calm 16.09 Overcast BKN050 OVC065 19.7 16.4 81% 75.69 0.0
06 20:15 Calm 16.09 Overcast SCT028 SCT049 OVC065 20.2 16.5 79% 75.69 0.0
06 19:55 Calm 16.09 Overcast BKN027 BKN046 OVC060 20.8 15.9 22.1 19.5 74% 75.69 0.0
06 19:35 S 7 16.09 Overcast SCT027 BKN070 OVC075 20.9 15.9 73% 75.67 0.0
06 19:15 Calm 16.09 Overcast SCT027 OVC070 21 15.9 73% 75.64 0.0
06 18:55 S 6 16.09 Overcast SCT025 BKN065 OVC085 21.1 15.9 72% 75.64 0.0
06 18:35 S 9 16.09 Mostly Cloudy SCT025 SCT075 BKN090 21.1 15.8 72% 75.64 0.0
06 18:15 S 7 16.09 Overcast SCT027 OVC090 21.2 15.9 72% 75.64 0.0
06 17:35 S 13 16.09 Overcast OVC025 21.4 15.7 70% 75.64 0.0
06 17:15 S 11 16.09 Mostly Cloudy BKN023 21.8 16 70% 75.62 0.0
06 16:55 S 11 16.09 Overcast OVC023 21.4 15.7 70% 75.62 0.0
06 16:35 S 15 16.09 Overcast OVC023 21.1 15.6 71% 75.59 0.0
06 16:15 S 11 16.09 Overcast OVC021 21.1 15.6 71% 75.62 0.0
06 15:55 S 17 G 28 16.09 Overcast OVC021 20.9 15.4 71% 75.62 0.0
06 15:35 S 11 16.09 Overcast OVC021 20.7 15.3 71% 75.62 0.0
06 15:15 S 13 16.09 Mostly Cloudy BKN021 21 15.5 71% 75.64 0.0
06 14:55 S 11 16.09 Partly Cloudy SCT021 20.3 15.3 73% 75.67 0.0
06 14:35 SW 11 16.09 Overcast OVC021 20 15.1 74% 75.67 0.0
06 14:15 SW 15 16.09 Overcast OVC019 20 15 73% 75.69 0.0
06 13:55 S 19 G 30 16.09 Overcast OVC019 19.4 14.9 19.5 16.4 75% 75.69 0.0 0.48
06 13:35 S 15 G 30 16.09 Overcast OVC019 19 14.9 77% 75.69 0.0
06 13:15 S 13 G 33 16.09 Overcast OVC017 18.6 14.8 79% 75.72 0.0
06 12:55 S 11 G 30 16.09 Overcast OVC015 18.4 15.2 82% 75.72 0.0
06 12:35 S 13 G 28 16.09 Overcast OVC015 17.9 15.1 84% 75.74 0.0
06 12:15 S 20 16.09 Overcast OVC013 17.7 15.4 86% 75.74 0.0
06 11:55 S 17 16.09 Overcast OVC015 17.3 15.4 89% 75.74 0.0 0.08
06 11:35 S 15 16.09 Light Rain BKN015 BKN048 OVC065 16.8 15.3 91% 75.77 0.0 0.08
06 11:15 S 15 11.27 Light Rain SCT048 BKN050 OVC095 16.8 15.2 90% 75.77 0.0 0.03
06 10:55 S 13 16.09 Light Rain OVC065 16.6 15 90% 75.79 0.0 0.23 0.41
06 10:15 S 9 8.05 Heavy Rain Fog/Mist SCT019 SCT075 OVC095 16.7 14.7 88% 75.79 0.0 0.1
06 09:55 S 11 11.27 Rain SCT080 OVC095 16.9 14.6 86% 75.82 0.0 0.18
06 09:35 S 11 11.27 Rain BKN070 OVC095 17.5 14.2 81% 75.84 0.0 0.05
06 09:15 S 9 16.09 Light Rain BKN070 OVC090 18 14.1 78% 75.82 0.0
06 08:55 S 11 16.09 Light Rain BKN100 OVC110 18 14.1 78% 75.79 0.0
06 08:35 S 13 16.09 Light Rain OVC100 18.4 13.9 75% 75.79 0.0
06 08:15 S 7 16.09 Light Rain OVC100 18.8 13.4 71% 75.82 0.0
06 07:55 SW 9 16.09 Overcast OVC110 18.9 13.3 21.9 18.9 70% 75.82 0.0
06 07:35 S 17 G 30 16.09 Overcast OVC100 19.2 12.9 67% 75.79 0.0
06 07:15 S 17 G 28 16.09 Mostly Cloudy BKN100 BKN120 19.3 12.7 66% 75.77 0.0
06 06:55 S 13 16.09 Mostly Cloudy SCT090 BKN110 19.2 12.7 66% 75.77 0.0
06 06:35 S 15 16.09 Mostly Cloudy BKN110 19.2 12.6 66% 75.74 0.0
06 06:15 S 15 16.09 Partly Cloudy SCT120 19.3 12.6 65% 75.74 0.0
06 05:55 S 13 G 28 16.09 Fair CLR 19.3 12.6 65% 75.74 0.0
06 05:35 S 13 16.09 Fair CLR 19.4 12.7 65% 75.77 0.0
06 05:15 S 11 16.09 Fair CLR 19.4 12.7 65% 75.77 0.0
06 04:55 S 15 16.09 Fair CLR 19.6 12.7 65% 75.77 0.0
06 04:35 S 13 16.09 Fair CLR 19.9 12.7 63% 75.77 0.0
06 04:15 S 13 16.09 Fair CLR 20.2 12.6 62% 75.77 0.0
06 03:55 S 15 16.09 Fair CLR 20.4 12.4 60% 75.74 0.0
06 03:35 S 13 16.09 Fair CLR 20.8 12.2 58% 75.77 0.0
06 03:15 S 15 16.09 Fair CLR 21.1 12 56% 75.77 0.0
06 02:55 S 11 G 26 16.09 Fair CLR 21.3 11.8 55% 75.79 0.0
06 02:35 S 11 16.09 Fair CLR 21.5 11.7 54% 75.79 0.0
06 02:15 S 13 16.09 Fair CLR 21.8 11.5 52% 75.79 0.0
06 01:55 S 11 16.09 Fair CLR 22 11.3 26.3 22 51% 75.79 0.0
06 01:35 S 15 G 26 16.09 Fair CLR 22.2 11.1 50% 75.82 0.0
06 01:15 S 11 16.09 Fair CLR 22.6 10.9 48% 75.82 0.0
06 00:55 S 9 16.09 Fair CLR 22.9 10.7 46% 75.82 0.0
06 00:35 S 11 16.09 Fair CLR 23.2 10.6 45% 75.82 0.0
06 00:15 S 13 G 30 16.09 Fair CLR 23.3 10.4 44% 75.82 0.0
05 23:55 S 17 G 31 16.09 Fair CLR 23.4 10.2 43% 75.82 0.0
05 23:35 S 13 G 31 16.09 Fair CLR 23.5 10.1 43% 75.82 0.0
05 23:15 S 13 16.09 Fair CLR 23.6 9.8 42% 75.82 0.0
05 22:55 S 17 G 31 16.09 Fair CLR 23.8 9.5 40% 75.82 0.0
05 22:35 S 15 16.09 Fair CLR 24 8.6 38% 25 75.82 0.0
05 22:15 S 15 16.09 Fair CLR 24.4 7.9 35% 25 75.82 0.0
05 21:55 S 17 G 28 16.09 Fair CLR 24.8 7.9 34% 25 75.82 0.0
05 21:35 S 11 G 28 16.09 Fair CLR 24.8 7.3 33% 25 75.79 0.0
05 21:15 S 13 16.09 Fair CLR 25 6.8 31% 25 75.79 0.0
05 20:55 S 13 16.09 Fair CLR 25.3 6.5 30% 26 75.77 0.0
05 20:35 S 13 16.09 Fair CLR 25.7 6.5 29% 26 75.74 0.0
05 20:15 S 19 G 33 16.09 Fair CLR 26.3 5.8 27% 26 75.74 0.0
05 19:55 S 11 16.09 Fair CLR 26.5 5.9 29.6 26.4 27% 26 75.72 0.0
05 19:35 S 17 G 28 16.09 Fair CLR 27.3 5 24% 26 75.72 0.0
05 19:15 S 15 G 26 16.09 Fair CLR 27.7 4.2 22% 27 75.72 0.0
05 18:55 S 15 16.09 Fair CLR 27.7 4.4 22% 27 75.72 0.0
05 18:35 S 17 G 31 16.09 Fair CLR 28 4.3 22% 27 75.72 0.0
05 18:15 S 20 G 33 16.09 Fair CLR 28.6 4.5 21% 27 75.72 0.0
05 17:55 S 20 G 43 16.09 Fair CLR 28.5 4 21% 27 75.72 0.0
05 17:35 S 13 G 33 16.09 Fair CLR 28.9 6.3 24% 28 75.69 0.0
05 17:15 S 17 G 33 16.09 Fair CLR 28.6 5.2 23% 27 75.69 0.0
05 16:35 SW 24 G 35 16.09 Fair CLR 29.4 5.9 23% 28 75.69 0.0
05 16:15 S 28 G 39 16.09 Fair CLR 29.2 6.1 23% 28 75.69 0.0
05 15:55 S 22 G 37 16.09 Fair CLR 28.9 5.9 23% 27 75.72 0.0
05 15:35 S 20 G 35 16.09 Fair CLR 28.9 6.6 24% 28 75.72 0.0
05 15:15 S 19 G 41 16.09 Fair CLR 28.8 6.5 24% 27 75.74 0.0
05 14:55 S 19 G 37 16.09 Fair CLR 28.5 6.1 24% 27 75.79 0.0
05 14:35 S 20 G 41 16.09 Fair CLR 28.4 7.2 26% 27 75.82 0.0
05 14:15 S 22 G 37 16.09 Fair CLR 28 7.3 27% 27 75.82 0.0
05 13:55 S 22 G 39 16.09 Fair CLR 27.7 7.9 27.8 18.6 29% 27 75.84 0.0
05 13:35 S 15 G 35 16.09 Fair CLR 27.4 8.8 31% 27 75.84 0.0
05 13:15 S 19 G 33 16.09 Fair CLR 27.4 8.9 31% 27 75.87 0.0
05 12:55 S 17 G 30 16.09 Fair CLR 26.6 8.8 33% 26 75.87 0.0
05 12:35 S 15 16.09 Fair CLR 26.2 9.7 35% 26 75.9 0.0
05 12:15 S 15 16.09 Fair CLR 25.9 9.5 36% 26 75.92 0.0
05 11:55 SW 15 16.09 Fair CLR 25.4 9.7 37% 26 75.95 0.0
05 11:15 S 13 16.09 Fair CLR 24.3 9.4 39% 25 75.95 0.0
05 10:55 S 11 16.09 Fair CLR 23.6 9.9 42% 75.95 0.0
05 10:35 S 15 16.09 Fair CLR 22.6 9.1 42% 75.95 0.0
05 10:15 S 11 16.09 Fair CLR 22.5 9.1 43% 75.97 0.0
05 09:55 S 11 16.09 Fair CLR 21.7 8.9 44% 75.95 0.0
05 09:35 S 9 16.09 Fair CLR 21.2 8.6 45% 75.97 0.0
05 09:15 S 9 16.09 Fair CLR 20.9 8.5 45% 75.97 0.0
05 08:55 SW 11 16.09 Fair CLR 20.1 8.1 46% 76 0.0
05 08:35 SW 9 16.09 Fair CLR 19.7 8.3 48% 76 0.0
05 08:15 S 7 16.09 Fair CLR 19.1 8 49% 75.97 0.0
05 07:55 S 9 16.09 Fair CLR 18.4 8.1 18.6 12.5 51% 75.95 0.0
05 07:35 SW 9 16.09 Fair CLR 18.1 7.9 52% 75.95 0.0
05 07:15 S 7 16.09 Fair CLR 17.7 7.8 53% 75.95 0.0
05 06:55 S 9 16.09 Fair CLR 17.6 7.9 53% 75.92 0.0
05 06:35 S 9 16.09 Fair CLR 17.1 7.7 54% 75.9 0.0
05 06:15 S 7 16.09 Fair CLR 17 7.7 55% 75.9 0.0
05 05:55 S 7 16.09 Fair CLR 16.9 7.5 54% 75.9 0.0
05 05:35 S 6 16.09 Fair CLR 16.7 7.5 55% 75.9 0.0
05 05:15 S 7 16.09 Fair CLR 16.9 7.5 54% 75.87 0.0
05 04:55 Calm 16.09 Fair CLR 17.2 7.3 52% 75.87 0.0
05 04:35 S 7 16.09 Fair CLR 17.2 7.2 52% 75.87 0.0
05 04:15 S 7 16.09 Fair CLR 17.3 7.2 52% 75.87 0.0
05 03:55 S 7 16.09 Fair CLR 17.5 7.2 51% 75.87 0.0
05 03:35 S 7 16.09 Fair CLR 15.8 7.6 58% 75.87 0.0
05 03:15 Calm 16.09 Fair CLR 13.1 8.4 73% 75.87 0.0
05 02:55 Calm 16.09 Fair CLR 12.6 8.3 75% 75.84 0.0
05 02:35 Calm 16.09 Fair CLR 13.1 8.5 74% 75.84 0.0
05 02:15 Calm 16.09 Fair CLR 13.6 8.6 72% 75.84 0.0
05 01:35 Calm 16.09 Fair CLR 14.6 8.5 67% 75.84 0.0
05 01:15 Calm 16.09 Fair CLR 14.7 8.2 65% 75.87 0.0
05 00:55 Calm 16.09 Fair CLR 14.9 8.5 66% 75.87 0.0
Date Time (edt) Wind (kph) Vis. (km) Weather Sky Cond. Air Dwpt Max. Min. Relative Humidity Wind Chill (°C) Heat Index (°C) altimeter (cm) sea level (mb) 1 hr 3 hr 6 hr
6 hour
Temperature (ºC) Pressure Precipitation (cm)